Time;durP1;ratioP1;P1;durP2;ratioP2;P2;SDS_P1;SDS_P2;PMS_P1;PMS_P2;Temp;Humidity;BMP_temperature;BMP_pressure;BME280_temperature;BME280_humidity;BME280_pressure;Samples;Min_cycle;Max_cycle;Signal;HPM_P1;HPM_P2
2022/05/30 00:00:24;;;;;;;6.60;1.10;;;9.90;99.90;;;;;;5045108;28;20211;-47
2022/05/30 00:02:52;;;;;;;5.83;1.27;;;9.90;99.90;;;;;;5037326;28;20199;-51
2022/05/30 00:05:21;;;;;;;4.43;1.60;;;9.80;99.90;;;;;;5052751;28;20199;-49
2022/05/30 00:07:49;;;;;;;6.90;1.40;;;9.80;99.90;;;;;;5056529;28;20618;-54
2022/05/30 00:10:19;;;;;;;4.73;1.00;;;9.80;99.90;;;;;;5053737;28;20212;-52
2022/05/30 00:12:46;;;;;;;6.63;1.50;;;9.80;99.90;;;;;;5052613;28;20210;-51
2022/05/30 00:15:18;;;;;;;3.47;1.03;;;9.80;99.90;;;;;;5054574;28;20232;-51
2022/05/30 00:17:45;;;;;;;5.30;1.30;;;9.90;99.90;;;;;;5036933;28;20302;-52
2022/05/30 00:20:13;;;;;;;6.67;1.40;;;9.90;99.90;;;;;;5056994;28;20229;-52
2022/05/30 00:22:40;;;;;;;6.87;1.50;;;9.90;99.90;;;;;;5052779;28;20210;-52
2022/05/30 00:25:09;;;;;;;4.70;1.17;;;9.90;99.90;;;;;;5055519;28;20933;-53
2022/05/30 00:27:36;;;;;;;3.77;1.10;;;9.90;99.90;;;;;;5053988;28;20203;-54
2022/05/30 00:30:06;;;;;;;4.13;0.90;;;9.90;99.90;;;;;;5045711;28;20187;-49
2022/05/30 00:32:34;;;;;;;7.07;0.90;;;9.90;99.90;;;;;;5045966;28;20615;-53
2022/05/30 00:35:01;;;;;;;5.57;1.30;;;9.90;99.90;;;;;;5037969;28;20203;-49
2022/05/30 00:37:28;;;;;;;7.73;1.10;;;9.90;99.90;;;;;;5057022;28;20599;-51
2022/05/30 00:39:55;;;;;;;6.57;1.53;;;9.90;99.90;;;;;;5058075;28;20195;-53
2022/05/30 00:42:26;;;;;;;5.43;0.97;;;9.90;99.90;;;;;;5058110;28;20313;-53
2022/05/30 00:44:54;;;;;;;4.63;1.00;;;9.90;99.90;;;;;;5054218;28;20698;-49
2022/05/30 00:47:22;;;;;;;3.53;1.17;;;9.90;99.90;;;;;;5050415;28;20207;-49
2022/05/30 00:49:50;;;;;;;5.93;1.80;;;9.90;99.90;;;;;;5044942;28;20199;-54
2022/05/30 00:52:21;;;;;;;4.17;1.50;;;9.90;99.90;;;;;;5056375;28;20210;-51
2022/05/30 00:54:52;;;;;;;5.93;2.10;;;9.80;99.90;;;;;;5047638;28;20241;-50
2022/05/30 00:57:22;;;;;;;3.27;1.40;;;9.80;99.90;;;;;;5053554;28;20671;-48
2022/05/30 00:59:56;;;;;;;5.57;1.43;;;9.80;99.90;;;;;;5048567;28;20229;-52
2022/05/30 01:02:27;;;;;;;5.63;1.70;;;9.80;99.90;;;;;;5049940;28;20221;-52
2022/05/30 01:07:41;;;;;;;5.63;1.80;;;9.90;99.90;;;;;;5039340;28;20199;-52
2022/05/30 01:10:11;;;;;;;4.37;1.50;;;9.90;99.90;;;;;;5051670;28;20184;-49
2022/05/30 01:12:40;;;;;;;5.03;1.50;;;9.90;99.90;;;;;;5054853;28;20603;-55
2022/05/30 01:15:14;;;;;;;7.00;1.70;;;9.90;99.90;;;;;;5056212;28;20202;-54
2022/05/30 01:17:56;;;;;;;7.47;1.53;;;9.80;99.90;;;;;;5043288;28;20229;-53
2022/05/30 01:20:41;;;;;;;8.47;1.50;;;9.70;99.90;;;;;;5046318;28;20202;-50
2022/05/30 01:23:31;;;;;;;5.50;1.30;;;9.80;99.90;;;;;;5053022;28;20944;-53
2022/05/30 01:26:27;;;;;;;4.20;1.50;;;9.70;99.90;;;;;;5047723;28;20209;-50
2022/05/30 01:29:01;;;;;;;6.57;1.47;;;9.70;99.90;;;;;;5045054;28;20241;-52
2022/05/30 01:31:31;;;;;;;6.93;1.37;;;9.70;99.90;;;;;;5054270;28;20206;-48
2022/05/30 01:33:59;;;;;;;2.87;1.10;;;9.60;99.90;;;;;;5040999;28;20257;-48
2022/05/30 01:36:28;;;;;;;4.30;1.23;;;9.60;99.90;;;;;;5046289;28;20210;-51
2022/05/30 01:38:55;;;;;;;3.83;1.20;;;9.70;99.90;;;;;;5038184;28;20547;-53
2022/05/30 01:41:37;;;;;;;4.13;1.17;;;9.70;99.90;;;;;;5054021;28;20226;-50
2022/05/30 01:44:06;;;;;;;5.80;1.10;;;9.70;99.90;;;;;;5053341;28;20194;-51
2022/05/30 01:46:34;;;;;;;2.70;1.17;;;9.70;99.90;;;;;;5049184;28;20214;-51
2022/05/30 01:49:03;;;;;;;8.00;1.60;;;9.70;99.90;;;;;;5040000;28;20301;-49
2022/05/30 01:51:29;;;;;;;8.90;1.40;;;9.60;99.90;;;;;;5044531;28;20309;-53
2022/05/30 01:54:01;;;;;;;6.40;1.43;;;9.60;99.90;;;;;;5039460;28;20773;-50
2022/05/30 01:56:48;;;;;;;10.00;1.60;;;9.60;99.90;;;;;;5047603;28;20290;-50
2022/05/30 01:59:17;;;;;;;7.20;1.57;;;9.60;99.90;;;;;;5054467;28;20230;-52
2022/05/30 02:02:04;;;;;;;2.90;1.50;;;9.60;99.90;;;;;;5049722;28;20223;-51
2022/05/30 02:04:33;;;;;;;7.53;1.63;;;9.70;99.90;;;;;;5046283;28;20206;-52
2022/05/30 02:07:00;;;;;;;5.33;1.13;;;9.70;99.90;;;;;;5045173;28;20194;-49
2022/05/30 02:09:27;;;;;;;4.00;1.57;;;9.60;99.90;;;;;;5043747;28;20630;-54
2022/05/30 02:11:54;;;;;;;6.33;1.60;;;9.70;99.90;;;;;;5048021;28;20584;-48
2022/05/30 02:14:44;;;;;;;4.33;1.57;;;9.70;99.90;;;;;;5042978;28;20218;-51
2022/05/30 02:17:11;;;;;;;6.47;1.43;;;9.60;99.90;;;;;;5054264;28;20776;-49
2022/05/30 02:19:41;;;;;;;6.40;1.70;;;9.60;99.90;;;;;;5054343;28;20215;-55
2022/05/30 02:22:12;;;;;;;4.50;1.70;;;9.60;99.90;;;;;;5046743;28;20218;-51
2022/05/30 02:24:40;;;;;;;4.10;1.60;;;9.60;99.90;;;;;;5039367;28;20207;-52
2022/05/30 02:27:08;;;;;;;5.80;1.50;;;9.60;99.90;;;;;;5051412;28;20286;-50
2022/05/30 02:29:35;;;;;;;9.03;1.93;;;9.60;99.90;;;;;;5057600;28;20313;-51
2022/05/30 02:32:07;;;;;;;5.57;1.87;;;9.60;99.90;;;;;;5050258;28;20954;-48
2022/05/30 02:37:21;;;;;;;6.03;1.60;;;9.50;99.90;;;;;;5043141;28;20310;-49
2022/05/30 02:39:49;;;;;;;6.40;1.67;;;9.50;99.90;;;;;;5038544;28;20293;-51
2022/05/30 02:42:18;;;;;;;9.80;2.40;;;9.50;99.90;;;;;;5050132;28;20292;-48
2022/05/30 02:44:45;;;;;;;7.43;1.50;;;9.50;99.90;;;;;;5050200;28;20203;-53
2022/05/30 02:47:13;;;;;;;6.07;1.93;;;9.50;99.90;;;;;;5054921;28;20197;-50
2022/05/30 02:49:46;;;;;;;3.57;1.30;;;9.50;99.90;;;;;;5052039;28;20214;-55
2022/05/30 02:52:13;;;;;;;2.77;1.10;;;9.40;99.90;;;;;;5044561;28;20213;-48
2022/05/30 02:54:40;;;;;;;4.77;1.80;;;9.50;99.90;;;;;;5038372;28;20601;-49
2022/05/30 02:57:14;;;;;;;7.23;1.60;;;9.50;99.90;;;;;;5048927;28;20294;-49
2022/05/30 02:59:42;;;;;;;2.30;1.43;;;9.40;99.90;;;;;;5045656;28;20718;-52
2022/05/30 03:02:09;;;;;;;9.57;1.77;;;9.50;99.90;;;;;;5050627;28;20222;-52
2022/05/30 03:04:38;;;;;;;4.73;1.47;;;9.50;99.90;;;;;;5055240;28;20206;-54
2022/05/30 03:07:06;;;;;;;7.13;1.60;;;9.50;99.90;;;;;;5054107;28;20194;-51
2022/05/30 03:09:33;;;;;;;8.37;1.63;;;9.50;99.90;;;;;;5045842;28;20220;-51
2022/05/30 03:12:29;;;;;;;3.77;1.33;;;9.50;99.90;;;;;;5034373;28;20211;-48
2022/05/30 03:14:56;;;;;;;3.00;2.30;;;9.50;99.90;;;;;;5051661;28;20187;-52
2022/05/30 03:17:24;;;;;;;7.93;1.50;;;9.50;99.90;;;;;;5051213;28;20277;-49
2022/05/30 03:19:55;;;;;;;3.63;1.50;;;9.50;99.90;;;;;;5050751;28;20289;-49
2022/05/30 03:22:22;;;;;;;6.47;1.87;;;9.50;99.90;;;;;;5051713;28;20218;-53
2022/05/30 03:25:12;;;;;;;6.20;1.43;;;9.50;99.90;;;;;;5045901;28;20194;-51
2022/05/30 03:27:39;;;;;;;3.03;1.53;;;9.50;99.90;;;;;;5038369;28;20212;-54
2022/05/30 03:30:08;;;;;;;4.60;1.47;;;9.40;99.90;;;;;;5053273;28;20216;-51
2022/05/30 03:32:35;;;;;;;8.33;1.83;;;9.40;99.90;;;;;;5046289;28;20198;-53
2022/05/30 03:35:05;;;;;;;2.70;1.37;;;9.50;99.90;;;;;;5045818;28;20191;-53
2022/05/30 03:37:36;;;;;;;3.13;1.60;;;9.50;99.90;;;;;;5043275;28;20607;-53
2022/05/30 03:40:27;;;;;;;2.60;1.33;;;9.50;99.90;;;;;;5037548;28;20242;-49
2022/05/30 03:43:21;;;;;;;4.87;1.57;;;9.50;99.90;;;;;;5054561;28;20210;-48
2022/05/30 03:45:48;;;;;;;9.03;2.30;;;9.50;99.90;;;;;;5056576;28;20203;-54
2022/05/30 03:48:15;;;;;;;4.37;1.70;;;9.60;99.90;;;;;;5058222;28;20241;-50
2022/05/30 03:50:45;;;;;;;5.50;1.53;;;9.50;99.90;;;;;;5045459;28;20198;-52
2022/05/30 03:53:13;;;;;;;9.50;1.40;;;9.50;99.90;;;;;;5050089;28;20194;-51
2022/05/30 03:55:42;;;;;;;7.03;1.40;;;9.50;99.90;;;;;;5042732;28;20294;-53
2022/05/30 03:58:12;;;;;;;5.37;1.50;;;9.60;99.90;;;;;;5041465;28;20926;-51
2022/05/30 04:00:41;;;;;;;8.03;1.70;;;9.60;99.90;;;;;;5050881;28;20194;-53
2022/05/30 04:03:09;;;;;;;8.03;1.53;;;9.60;99.90;;;;;;5059028;28;20222;-53
2022/05/30 04:05:37;;;;;;;11.83;2.37;;;9.70;99.90;;;;;;5044912;28;20211;-52
2022/05/30 04:08:06;;;;;;;6.80;1.60;;;9.70;99.90;;;;;;5047251;28;20272;-51
2022/05/30 04:10:56;;;;;;;2.70;1.50;;;9.70;99.90;;;;;;5042449;28;20227;-51
2022/05/30 04:13:42;;;;;;;8.60;1.20;;;9.80;99.90;;;;;;5035778;28;20592;-50
2022/05/30 04:16:21;;;;;;;6.50;1.97;;;9.80;99.90;;;;;;5046314;28;20210;-48
2022/05/30 04:18:48;;;;;;;10.03;2.00;;;9.80;99.90;;;;;;5048108;28;20289;-53
2022/05/30 04:21:16;;;;;;;5.47;1.80;;;9.80;99.90;;;;;;5054186;28;20217;-48
2022/05/30 04:23:44;;;;;;;3.50;1.37;;;9.80;99.90;;;;;;5046925;28;20701;-48
2022/05/30 04:26:17;;;;;;;8.07;2.43;;;9.70;99.90;;;;;;5045893;28;20206;-51
2022/05/30 04:28:48;;;;;;;8.27;2.23;;;9.70;99.90;;;;;;5041372;28;20594;-52
2022/05/30 04:31:38;;;;;;;5.47;1.60;;;9.80;99.90;;;;;;5044422;28;20199;-52
2022/05/30 04:34:05;;;;;;;4.97;1.50;;;9.80;99.90;;;;;;5043422;28;20197;-51
2022/05/30 04:36:33;;;;;;;4.50;1.57;;;9.80;99.90;;;;;;5049966;28;20195;-51
2022/05/30 04:39:02;;;;;;;7.63;2.53;;;9.80;99.90;;;;;;5055762;28;20242;-50
2022/05/30 04:41:49;;;;;;;6.77;2.20;;;9.80;99.90;;;;;;5036075;28;20570;-51
2022/05/30 04:44:35;;;;;;;5.10;3.00;;;9.80;99.90;;;;;;5040746;28;20218;-48
2022/05/30 04:47:21;;;;;;;5.67;2.57;;;9.90;99.90;;;;;;5056168;28;20680;-52
2022/05/30 04:49:50;;;;;;;6.03;2.63;;;9.80;99.90;;;;;;5051486;28;20200;-53
2022/05/30 04:52:19;;;;;;;7.83;3.13;;;9.80;99.90;;;;;;5057024;28;20293;-49
2022/05/30 04:54:48;;;;;;;5.87;2.60;;;9.90;99.90;;;;;;5050613;28;20199;-51
2022/05/30 04:57:44;;;;;;;3.67;1.70;;;9.90;99.90;;;;;;5025668;28;20211;-51
2022/05/30 05:00:30;;;;;;;9.97;1.67;;;10.00;99.90;;;;;;5055396;28;20768;-51
2022/05/30 05:03:00;;;;;;;4.90;1.77;;;9.90;99.90;;;;;;5045165;28;20960;-53
2022/05/30 05:05:27;;;;;;;4.03;1.80;;;9.90;99.90;;;;;;5056646;28;20302;-49
2022/05/30 05:08:01;;;;;;;5.20;1.67;;;9.90;99.90;;;;;;5047640;28;20202;-50
2022/05/30 05:10:41;;;;;;;5.57;1.83;;;10.00;99.90;;;;;;5056463;28;20202;-54
2022/05/30 05:13:47;;;;;;;8.27;1.80;;;10.00;99.90;;;;;;5034319;28;20214;-52
2022/05/30 05:16:33;;;;;;;5.23;1.57;;;10.00;99.90;;;;;;5058505;28;20344;-52
2022/05/30 05:19:01;;;;;;;4.97;2.37;;;10.00;99.90;;;;;;5050586;28;20216;-50
2022/05/30 05:21:31;;;;;;;5.33;2.10;;;10.10;99.90;;;;;;5051659;28;20667;-52
2022/05/30 05:24:00;;;;;;;3.03;1.73;;;10.10;99.90;;;;;;5050758;28;20195;-50
2022/05/30 05:26:43;;;;;;;5.73;2.20;;;10.20;99.90;;;;;;5047941;28;20194;-53
2022/05/30 05:29:19;;;;;;;3.43;1.83;;;10.10;99.90;;;;;;5049767;28;20867;-49
2022/05/30 05:31:47;;;;;;;2.93;2.07;;;10.20;99.90;;;;;;5040964;28;20560;-53
2022/05/30 05:34:17;;;;;;;5.03;2.20;;;10.30;99.90;;;;;;5049937;28;20199;-51
2022/05/30 05:36:46;;;;;;;3.70;2.00;;;10.30;99.90;;;;;;5047848;28;20191;-51
2022/05/30 05:39:14;;;;;;;4.93;1.70;;;10.40;99.90;;;;;;5044988;28;20322;-49
2022/05/30 05:41:54;;;;;;;4.30;1.60;;;10.30;99.90;;;;;;5039519;28;20230;-53
2022/05/30 05:44:22;;;;;;;3.60;1.57;;;10.40;99.90;;;;;;5048310;28;20199;-54
2022/05/30 05:46:50;;;;;;;5.10;1.63;;;10.40;99.90;;;;;;5039115;28;20215;-53
2022/05/30 05:49:18;;;;;;;10.00;2.10;;;10.30;99.90;;;;;;5045473;28;20235;-50
2022/05/30 05:51:45;;;;;;;7.97;2.50;;;10.40;99.90;;;;;;5048591;28;20195;-49
2022/05/30 05:54:13;;;;;;;5.43;1.93;;;10.40;99.90;;;;;;5053856;28;20200;-52
2022/05/30 05:56:40;;;;;;;6.37;1.97;;;10.50;99.90;;;;;;5042898;28;20203;-51
2022/05/30 05:59:15;;;;;;;6.10;2.20;;;10.50;99.90;;;;;;5040991;28;20233;-53
2022/05/30 06:01:43;;;;;;;7.60;1.80;;;10.50;99.90;;;;;;5034324;28;21718;-49
2022/05/30 06:04:12;;;;;;;4.60;1.90;;;10.50;99.90;;;;;;5054922;28;20253;-52
2022/05/30 06:06:44;;;;;;;6.17;1.90;;;10.40;99.90;;;;;;5043365;28;20203;-49
2022/05/30 06:09:14;;;;;;;5.40;2.00;;;10.50;99.90;;;;;;5062804;28;20359;-54
2022/05/30 06:11:53;;;;;;;3.27;1.57;;;10.50;99.90;;;;;;5060159;28;20589;-50
2022/05/30 06:14:23;;;;;;;7.57;2.07;;;10.50;99.90;;;;;;5043361;28;20694;-53
2022/05/30 06:16:52;;;;;;;4.70;1.77;;;10.50;99.90;;;;;;5036281;28;20213;-52
2022/05/30 06:19:21;;;;;;;7.70;1.70;;;10.40;99.90;;;;;;5048336;28;20215;-49
2022/05/30 06:21:48;;;;;;;5.83;1.90;;;10.50;99.90;;;;;;5055201;28;20179;-48
2022/05/30 06:24:16;;;;;;;4.53;1.73;;;10.60;99.90;;;;;;5048532;28;20241;-52
2022/05/30 06:27:03;;;;;;;3.37;1.63;;;10.60;99.90;;;;;;5045100;28;20242;-52
2022/05/30 06:29:58;;;;;;;5.23;1.80;;;10.60;99.90;;;;;;5049838;28;20574;-52
2022/05/30 06:32:26;;;;;;;8.00;1.80;;;10.70;99.90;;;;;;5037547;28;20592;-52
2022/05/30 06:35:03;;;;;;;5.47;2.10;;;10.80;99.90;;;;;;5053037;28;20702;-54
2022/05/30 06:37:32;;;;;;;2.07;1.70;;;10.70;99.90;;;;;;5042131;28;20207;-53
2022/05/30 06:39:58;;;;;;;4.07;1.40;;;10.70;99.90;;;;;;5043523;28;20230;-48
2022/05/30 06:42:31;;;;;;;6.00;1.53;;;10.70;99.90;;;;;;5039667;28;20306;-53
2022/05/30 06:45:18;;;;;;;3.93;1.50;;;10.60;99.90;;;;;;5048821;28;20684;-54
2022/05/30 06:48:05;;;;;;;8.93;1.80;;;10.70;99.90;;;;;;5039763;28;20275;-52
2022/05/30 06:50:47;;;;;;;4.30;1.30;;;10.80;99.90;;;;;;5046703;28;21045;-54
2022/05/30 06:53:14;;;;;;;7.90;1.93;;;10.70;99.90;;;;;;5055503;28;20298;-54
2022/05/30 06:55:41;;;;;;;4.40;1.40;;;10.70;99.90;;;;;;5044597;28;20210;-49
2022/05/30 06:58:14;;;;;;;3.57;1.17;;;10.70;99.90;;;;;;5045147;28;20309;-51
2022/05/30 07:00:47;;;;;;;4.40;1.70;;;10.70;99.90;;;;;;5049137;28;20201;-50
2022/05/30 07:03:37;;;;;;;4.63;1.80;;;10.80;99.90;;;;;;5034032;28;20926;-50
2022/05/30 07:06:25;;;;;;;2.20;1.20;;;10.80;99.90;;;;;;5053805;28;20218;-53
2022/05/30 07:09:17;;;;;;;4.33;1.90;;;10.80;99.90;;;;;;5044332;28;20301;-54
2022/05/30 07:11:49;;;;;;;3.73;1.97;;;10.90;99.90;;;;;;5044961;28;20199;-52
2022/05/30 07:14:19;;;;;;;3.67;1.93;;;10.90;99.90;;;;;;5067281;28;20253;-53
2022/05/30 07:16:48;;;;;;;7.00;1.83;;;10.90;99.90;;;;;;5046295;28;20210;-50
2022/05/30 07:19:15;;;;;;;5.67;2.37;;;10.90;99.90;;;;;;5029263;28;20561;-55
2022/05/30 07:21:55;;;;;;;5.10;2.00;;;10.80;99.90;;;;;;5050282;28;20237;-48
2022/05/30 07:24:40;;;;;;;5.87;1.70;;;10.70;99.90;;;;;;5035638;28;21045;-51
2022/05/30 07:27:27;;;;;;;5.10;1.57;;;10.70;99.90;;;;;;5049948;28;20207;-53
2022/05/30 07:30:13;;;;;;;4.67;1.60;;;10.60;99.90;;;;;;5053297;28;20205;-54
2022/05/30 07:32:59;;;;;;;6.40;2.00;;;10.60;99.90;;;;;;5050800;28;20205;-52
2022/05/30 07:35:44;;;;;;;3.43;1.97;;;10.70;99.90;;;;;;5039803;28;20205;-52
2022/05/30 07:38:41;;;;;;;6.43;2.23;;;10.60;99.90;;;;;;5055537;28;20206;-52
2022/05/30 07:41:29;;;;;;;6.87;1.93;;;10.70;99.90;;;;;;5041754;28;20698;-54
2022/05/30 07:44:13;;;;;;;3.77;1.63;;;10.70;99.90;;;;;;5038561;28;20365;-53
2022/05/30 07:46:52;;;;;;;6.27;1.77;;;10.60;99.90;;;;;;5041082;28;20668;-51
2022/05/30 07:49:30;;;;;;;8.23;2.27;;;10.60;99.90;;;;;;5046478;28;20222;-53
2022/05/30 07:52:04;;;;;;;5.20;2.33;;;10.50;99.90;;;;;;5043911;28;20624;-53
2022/05/30 07:54:37;;;;;;;5.30;2.53;;;10.50;99.90;;;;;;5043407;28;20211;-54
2022/05/30 07:57:10;;;;;;;4.07;1.80;;;10.50;99.90;;;;;;5043310;28;20710;-51
2022/05/30 07:59:37;;;;;;;5.33;2.00;;;10.50;99.90;;;;;;5039151;28;20219;-55
2022/05/30 08:02:06;;;;;;;7.13;1.83;;;10.50;99.90;;;;;;5040194;28;20298;-54
2022/05/30 08:04:35;;;;;;;5.33;2.53;;;10.50;99.90;;;;;;5037963;28;20219;-51
2022/05/30 08:07:21;;;;;;;8.10;3.67;;;10.50;99.90;;;;;;5034280;28;20782;-49
2022/05/30 08:10:12;;;;;;;7.47;3.30;;;10.40;99.90;;;;;;5052010;28;20199;-50
2022/05/30 08:12:38;;;;;;;5.00;3.30;;;10.30;99.90;;;;;;5036889;28;20282;-52
2022/05/30 08:15:24;;;;;;;5.07;2.83;;;10.30;99.90;;;;;;5037125;28;20210;-55
2022/05/30 08:18:15;;;;;;;4.43;3.10;;;10.30;99.90;;;;;;5041162;28;20230;-53
2022/05/30 08:20:43;;;;;;;5.30;3.03;;;10.30;99.90;;;;;;5041323;28;20187;-53
2022/05/30 08:23:10;;;;;;;6.97;3.47;;;10.30;99.90;;;;;;5044327;28;20231;-55
2022/05/30 08:25:37;;;;;;;5.27;2.60;;;10.40;99.90;;;;;;5037500;28;20841;-54
2022/05/30 08:28:05;;;;;;;3.87;2.90;;;10.40;99.90;;;;;;5059359;28;20309;-52
2022/05/30 08:30:32;;;;;;;5.30;2.90;;;10.50;99.90;;;;;;5043133;28;20207;-52
2022/05/30 08:33:31;;;;;;;4.57;3.10;;;10.50;99.90;;;;;;5030418;28;20796;-51
2022/05/30 08:36:24;;;;;;;4.87;3.00;;;10.50;99.90;;;;;;5042712;28;20211;-50
2022/05/30 08:41:46;;;;;;;4.43;3.30;;;10.60;99.90;;;;;;5045329;28;20314;-53
2022/05/30 08:41:47;;;;;;;4.40;2.93;;;10.80;99.90;;;;;;5048557;28;20899;-54
2022/05/30 08:44:32;;;;;;;7.50;2.53;;;10.90;99.90;;;;;;5041195;28;20392;-55
2022/05/30 08:47:35;;;;;;;6.00;2.73;;;10.90;99.90;;;;;;5044047;28;20215;-53
2022/05/30 08:50:11;;;;;;;6.93;2.80;;;11.00;99.90;;;;;;5046571;28;20200;-49
2022/05/30 08:52:47;;;;;;;1.87;1.77;;;11.00;99.90;;;;;;5048069;28;20265;-51
2022/05/30 08:55:28;;;;;;;5.50;2.17;;;11.00;99.90;;;;;;5041988;28;20210;-49
2022/05/30 08:58:10;;;;;;;4.33;2.27;;;11.10;99.90;;;;;;5050182;28;20846;-51
2022/05/30 09:00:44;;;;;;;3.97;1.97;;;11.20;99.90;;;;;;5042803;28;20304;-52
2022/05/30 09:03:21;;;;;;;3.27;1.50;;;11.20;99.90;;;;;;5047612;28;20242;-54
2022/05/30 09:05:52;;;;;;;2.70;1.57;;;11.10;99.90;;;;;;5045034;28;20306;-49
2022/05/30 09:08:26;;;;;;;6.03;2.10;;;11.20;99.90;;;;;;5044318;28;20268;-54
2022/05/30 09:11:21;;;;;;;2.07;1.43;;;11.20;99.90;;;;;;5059107;28;20562;-51
2022/05/30 09:13:51;;;;;;;1.87;1.60;;;11.10;99.90;;;;;;5044234;28;20207;-51
2022/05/30 09:16:32;;;;;;;4.27;1.90;;;11.00;99.90;;;;;;5046284;28;20320;-53
2022/05/30 09:19:07;;;;;;;2.00;1.67;;;10.90;99.90;;;;;;5049101;28;20302;-50
2022/05/30 09:21:36;;;;;;;2.70;2.00;;;10.90;99.90;;;;;;5047525;28;21050;-51
2022/05/30 09:24:05;;;;;;;3.43;2.13;;;10.70;99.90;;;;;;5050288;28;20226;-49
2022/05/30 09:26:36;;;;;;;2.00;1.80;;;10.60;99.90;;;;;;5048671;28;20407;-49
2022/05/30 09:29:24;;;;;;;2.30;1.53;;;10.50;99.90;;;;;;5048200;28;20237;-53
2022/05/30 09:32:16;;;;;;;2.77;2.00;;;10.50;99.90;;;;;;5050100;28;20737;-53
2022/05/30 09:35:25;;;;;;;6.77;2.57;;;10.50;99.90;;;;;;5048376;28;20206;-52
2022/05/30 09:38:20;;;;;;;4.10;2.03;;;10.50;99.90;;;;;;5047509;28;20235;-53
2022/05/30 09:41:23;;;;;;;2.40;2.20;;;10.40;99.90;;;;;;5047189;28;20267;-50
2022/05/30 09:44:08;;;;;;;4.03;2.23;;;10.40;99.90;;;;;;5046747;28;20223;-48
2022/05/30 09:46:38;;;;;;;5.73;2.03;;;10.40;99.90;;;;;;5044016;28;20203;-52
2022/05/30 09:49:14;;;;;;;2.83;2.00;;;10.40;99.90;;;;;;5049005;28;20705;-54
2022/05/30 09:51:44;;;;;;;1.97;1.73;;;10.40;99.90;;;;;;5043344;28;20215;-48
2022/05/30 09:54:30;;;;;;;2.33;2.10;;;10.40;99.90;;;;;;5057173;28;20187;-51
2022/05/30 09:57:04;;;;;;;2.40;2.10;;;10.40;99.90;;;;;;5047524;28;20276;-51
2022/05/30 09:59:55;;;;;;;2.63;2.20;;;10.40;99.90;;;;;;5046453;28;20210;-53
2022/05/30 10:02:27;;;;;;;3.40;2.10;;;10.50;99.90;;;;;;5045762;28;20203;-52
2022/05/30 10:05:01;;;;;;;2.83;2.20;;;10.50;99.90;;;;;;5047755;28;20765;-50
2022/05/30 10:07:29;;;;;;;4.80;2.43;;;10.60;99.90;;;;;;5045018;28;20904;-48
2022/05/30 10:10:11;;;;;;;2.73;2.43;;;10.70;99.90;;;;;;5054659;28;20198;-51
2022/05/30 10:12:44;;;;;;;3.40;2.23;;;10.70;99.90;;;;;;5039448;28;20721;-50
2022/05/30 10:15:28;;;;;;;5.00;1.93;;;10.70;99.90;;;;;;5043206;28;20210;-53
2022/05/30 10:18:24;;;;;;;6.43;2.47;;;10.70;99.90;;;;;;5048328;28;20246;-52
2022/05/30 10:21:03;;;;;;;2.97;1.93;;;10.80;99.90;;;;;;5049756;28;20199;-52
2022/05/30 10:30:42;;;;;;;4.37;2.40;;;11.00;99.90;;;;;;5041352;28;20206;-54
2022/05/30 10:33:44;;;;;;;2.97;2.20;;;11.10;99.90;;;;;;5046520;28;20201;-55
2022/05/30 10:36:17;;;;;;;3.63;2.70;;;11.10;99.90;;;;;;5042360;28;20202;-55
2022/05/30 10:39:01;;;;;;;2.53;1.97;;;11.30;99.90;;;;;;5043250;28;20226;-52
2022/05/30 10:41:35;;;;;;;2.27;2.00;;;11.40;99.90;;;;;;5044000;28;20203;-49
2022/05/30 10:44:09;;;;;;;4.87;1.77;;;11.60;99.90;;;;;;5046420;28;20217;-48
2022/05/30 10:46:43;;;;;;;6.63;2.33;;;11.70;99.90;;;;;;5041386;28;20207;-55
2022/05/30 10:49:14;;;;;;;4.63;1.90;;;12.00;99.90;;;;;;5042720;28;20646;-52
2022/05/30 10:51:55;;;;;;;5.03;2.10;;;12.10;99.90;;;;;;5053650;28;20861;-53
2022/05/30 10:54:30;;;;;;;2.30;1.87;;;12.30;99.90;;;;;;5044547;28;20290;-55
2022/05/30 10:57:11;;;;;;;4.10;2.10;;;12.40;99.90;;;;;;5052303;28;20190;-51
2022/05/30 10:59:42;;;;;;;3.07;1.73;;;12.50;99.90;;;;;;5040632;28;20305;-49
2022/05/30 11:02:22;;;;;;;2.70;2.00;;;12.50;99.90;;;;;;5044033;28;20663;-53
2022/05/30 11:04:54;;;;;;;2.50;1.63;;;12.50;99.90;;;;;;5044103;28;20305;-48
2022/05/30 11:07:37;;;;;;;7.00;2.07;;;12.40;99.90;;;;;;5054102;28;20237;-56
2022/05/30 11:10:10;;;;;;;1.80;1.60;;;12.20;99.90;;;;;;5042374;28;20249;-49
2022/05/30 11:12:40;;;;;;;2.40;2.03;;;12.10;99.90;;;;;;5048065;28;20219;-52
2022/05/30 11:15:11;;;;;;;4.20;1.77;;;12.00;99.90;;;;;;5045916;28;21009;-49
2022/05/30 11:18:10;;;;;;;3.10;2.20;;;12.00;99.90;;;;;;5044754;28;20227;-52
2022/05/30 11:21:02;;;;;;;2.47;2.00;;;11.90;99.90;;;;;;5047863;28;20667;-53
2022/05/30 11:23:29;;;;;;;2.43;2.23;;;12.00;99.90;;;;;;5050174;28;20825;-48
2022/05/30 11:26:12;;;;;;;3.53;1.90;;;12.00;99.90;;;;;;5050617;28;20202;-55
2022/05/30 11:28:59;;;;;;;2.27;2.07;;;12.00;99.90;;;;;;5040207;28;20226;-55
2022/05/30 11:31:33;;;;;;;2.67;1.90;;;11.90;99.90;;;;;;5052465;28;20210;-53
2022/05/30 11:34:14;;;;;;;3.93;2.27;;;12.00;99.90;;;;;;5037021;28;20200;-55
2022/05/30 11:36:52;;;;;;;4.37;2.30;;;12.00;99.90;;;;;;5047905;28;20200;-53
2022/05/30 11:39:33;;;;;;;2.17;2.00;;;11.90;99.90;;;;;;5046687;28;20579;-50
2022/05/30 11:42:09;;;;;;;2.10;2.00;;;12.00;99.90;;;;;;5039374;28;20198;-55
2022/05/30 11:44:49;;;;;;;2.50;2.30;;;11.90;99.90;;;;;;5038445;28;20209;-54
2022/05/30 11:47:43;;;;;;;4.30;2.33;;;11.90;99.90;;;;;;5048800;28;20198;-54
2022/05/30 11:50:23;;;;;;;3.57;1.97;;;12.10;99.90;;;;;;5044602;28;20219;-53
2022/05/30 11:53:21;;;;;;;4.73;2.17;;;12.10;99.90;;;;;;5051002;28;20206;-51
2022/05/30 11:55:57;;;;;;;2.10;1.97;;;12.30;99.90;;;;;;5048344;28;20541;-52
2022/05/30 11:58:43;;;;;;;2.30;2.03;;;12.40;99.90;;;;;;5043716;28;20229;-52
2022/05/30 12:01:11;;;;;;;2.00;1.90;;;12.50;99.90;;;;;;5041722;28;20207;-54
2022/05/30 12:04:15;;;;;;;2.90;1.90;;;12.60;99.90;;;;;;5047955;28;20210;-51
2022/05/30 12:06:59;;;;;;;2.27;1.90;;;12.70;99.90;;;;;;5056144;28;20202;-55
2022/05/30 12:09:53;;;;;;;4.40;1.90;;;12.80;99.90;;;;;;5046963;28;20211;-51
2022/05/30 12:12:40;;;;;;;2.03;1.50;;;12.70;99.90;;;;;;5046175;28;20201;-55
2022/05/30 12:15:32;;;;;;;3.43;1.80;;;12.70;99.90;;;;;;5043667;28;20207;-55
2022/05/30 12:24:21;;;;;;;1.57;1.47;;;12.50;99.90;;;;;;5054597;28;20215;-53
2022/05/30 12:27:05;;;;;;;2.63;1.00;;;12.50;99.90;;;;;;5062364;28;20226;-51
2022/05/30 12:29:50;;;;;;;1.37;1.20;;;12.50;99.90;;;;;;5049696;28;20222;-50
2022/05/30 12:32:40;;;;;;;3.97;1.20;;;12.60;99.90;;;;;;5038031;28;20214;-52
2022/05/30 12:35:29;;;;;;;1.00;0.80;;;12.70;99.90;;;;;;5051321;28;20190;-51
2022/05/30 12:38:10;;;;;;;3.10;0.70;;;12.80;99.90;;;;;;5047443;28;20231;-53
2022/05/30 12:40:42;;;;;;;0.40;0.40;;;12.80;99.90;;;;;;5051491;28;20233;-50
2022/05/30 12:43:16;;;;;;;0.87;0.87;;;12.90;99.90;;;;;;5043247;28;20199;-53
2022/05/30 12:45:46;;;;;;;2.37;0.53;;;13.00;99.90;;;;;;5050610;28;20219;-49
2022/05/30 12:48:19;;;;;;;1.67;0.93;;;13.10;99.90;;;;;;5045394;28;20218;-53
2022/05/30 12:51:11;;;;;;;1.27;0.70;;;13.20;99.90;;;;;;5049699;28;20224;-53
2022/05/30 12:54:14;;;;;;;1.33;0.90;;;13.20;99.90;;;;;;5056582;28;20225;-51
2022/05/30 12:57:06;;;;;;;1.30;0.50;;;13.20;99.90;;;;;;5023418;28;20663;-54
2022/05/30 12:59:35;;;;;;;1.00;0.47;;;13.10;99.90;;;;;;5054149;28;20906;-52
2022/05/30 13:02:04;;;;;;;4.67;1.07;;;13.10;99.90;;;;;;5049860;28;20191;-52
2022/05/30 13:04:35;;;;;;;0.57;0.50;;;13.20;99.90;;;;;;5039558;28;20211;-54
2022/05/30 13:07:16;;;;;;;1.10;0.50;;;13.20;99.90;;;;;;5053820;28;20347;-51
2022/05/30 13:09:45;;;;;;;1.83;0.60;;;13.30;99.90;;;;;;5051967;28;20210;-51
2022/05/30 13:12:52;;;;;;;4.90;0.93;;;13.20;99.90;;;;;;5044391;28;20191;-53
2022/05/30 13:15:36;;;;;;;1.27;0.50;;;13.20;99.90;;;;;;5041858;28;20194;-53
2022/05/30 13:18:11;;;;;;;1.40;0.80;;;13.10;99.90;;;;;;5045074;28;20219;-51
2022/05/30 13:20:45;;;;;;;0.80;0.80;;;13.00;99.90;;;;;;5044161;28;20210;-49
2022/05/30 13:23:15;;;;;;;1.17;0.77;;;12.90;99.90;;;;;;5044677;28;20202;-52
2022/05/30 13:25:46;;;;;;;3.67;1.10;;;12.80;99.90;;;;;;5055518;28;20221;-54
2022/05/30 13:28:21;;;;;;;1.30;0.73;;;12.70;99.90;;;;;;5042937;28;20219;-52
2022/05/30 13:30:50;;;;;;;0.80;0.63;;;12.80;99.90;;;;;;5054126;28;20201;-50
2022/05/30 13:33:22;;;;;;;2.03;1.10;;;12.80;99.90;;;;;;5049633;28;20210;-52
2022/05/30 13:35:53;;;;;;;4.33;1.10;;;12.80;99.90;;;;;;5039608;28;20576;-51
2022/05/30 13:38:27;;;;;;;2.53;0.90;;;12.80;99.90;;;;;;5037791;28;20305;-56
2022/05/30 13:40:54;;;;;;;4.23;1.27;;;12.80;99.90;;;;;;5047524;28;20202;-49
2022/05/30 13:43:32;;;;;;;2.23;1.10;;;12.90;99.90;;;;;;5045310;28;20207;-51
2022/05/30 13:45:59;;;;;;;3.10;1.00;;;13.00;99.90;;;;;;5051538;28;20319;-53
2022/05/30 13:48:26;;;;;;;4.20;0.80;;;13.00;99.90;;;;;;5055298;28;20321;-54
2022/05/30 13:50:56;;;;;;;2.00;0.80;;;13.20;99.90;;;;;;5044138;28;20199;-51
2022/05/30 13:53:25;;;;;;;3.60;0.60;;;13.30;99.90;;;;;;5043256;28;20278;-51